Time;durP1;ratioP1;P1;durP2;ratioP2;P2;SDS_P1;SDS_P2;PMS_P1;PMS_P2;Temp;Humidity;BMP_temperature;BMP_pressure;BME280_temperature;BME280_humidity;BME280_pressure;Samples;Min_cycle;Max_cycle;Signal;HPM_P1;HPM_P2
2022/11/30 00:00:30;;;;;;;;;61.33;48.67;;;;;3.06;100.00;100254.59;6297395;20;3622186;-68
2022/11/30 00:03:00;;;;;;;;;62.00;48.00;;;;;3.05;100.00;100255.47;6300921;20;3612999;-69
2022/11/30 00:05:29;;;;;;;;;61.00;48.50;;;;;3.05;100.00;100250.16;6302301;20;2866986;-68
2022/11/30 00:08:00;;;;;;;;;57.50;45.00;;;;;2.96;100.00;100250.38;6274023;20;2857682;-69
2022/11/30 00:10:30;;;;;;;;;64.00;51.67;;;;;3.07;100.00;100249.22;6273307;20;2872359;-68
2022/11/30 00:13:00;;;;;;;;;58.33;44.33;;;;;3.16;100.00;100250.84;6302387;20;2865923;-68
2022/11/30 00:15:28;;;;;;;;;58.00;47.00;;;;;3.06;100.00;100244.84;6305496;20;2848228;-68
2022/11/30 00:17:58;;;;;;;;;67.00;51.00;;;;;3.23;100.00;100244.47;6274723;20;3638803;-68
2022/11/30 00:20:28;;;;;;;;;57.00;46.00;;;;;3.23;100.00;100244.47;6303996;20;2862758;-67
2022/11/30 00:22:58;;;;;;;;;63.00;44.67;;;;;3.06;100.00;100239.53;6270022;20;2879500;-68
2022/11/30 00:25:28;;;;;;;;;60.00;46.00;;;;;3.18;100.00;100241.03;6305722;20;3610675;-68
2022/11/30 00:28:00;;;;;;;;;61.00;49.00;;;;;3.07;100.00;100232.44;6300865;20;2865949;-68
2022/11/30 00:30:30;;;;;;;;;58.00;47.33;;;;;2.99;100.00;100234.41;6274788;20;2865911;-68
2022/11/30 00:32:59;;;;;;;;;63.67;49.67;;;;;3.11;100.00;100231.50;6305049;20;2875412;-68
2022/11/30 00:35:30;;;;;;;;;57.50;45.50;;;;;3.07;100.00;100235.09;6304083;20;2860820;-68
2022/11/30 00:38:02;;;;;;;;;52.00;42.50;;;;;3.24;100.00;100246.22;6272540;20;2860926;-68
2022/11/30 00:40:31;;;;;;;;;64.67;48.00;;;;;3.07;100.00;100233.31;6270401;20;2883847;-68
2022/11/30 00:43:01;;;;;;;;;67.67;48.00;;;;;3.09;100.00;100241.25;6302974;20;3631575;-68
2022/11/30 00:45:29;;;;;;;;;52.50;41.50;;;;;2.85;100.00;100243.53;6304558;20;2860763;-68
2022/11/30 00:47:59;;;;;;;;;65.33;48.00;;;;;2.96;100.00;100250.38;6271979;20;2874333;-68
2022/11/30 00:50:28;;;;;;;;;61.33;51.00;;;;;2.79;100.00;100251.63;6303061;20;2874406;-68
2022/11/30 00:52:58;;;;;;;;;64.67;44.67;;;;;2.79;100.00;100251.63;6302399;20;2869179;-68
2022/11/30 00:55:27;;;;;;;;;68.33;48.00;;;;;2.78;100.00;100241.91;6298142;20;3624293;-68
2022/11/30 00:57:58;;;;;;;;;58.50;47.00;;;;;2.86;100.00;100247.03;6303690;20;2854416;-68
2022/11/30 01:00:28;;;;;;;;;59.00;47.00;;;;;2.78;100.00;100241.91;6270638;20;2876433;-68
2022/11/30 01:03:01;;;;;;;;;62.00;46.67;;;;;2.73;100.00;100238.47;6301331;20;2876679;-69
2022/11/30 01:05:33;;;;;;;;;65.67;47.67;;;;;2.84;100.00;100230.28;6305314;20;2877623;-68
2022/11/30 01:08:06;;;;;;;;;60.00;47.00;;;;;2.90;100.00;100229.28;6302802;20;2859813;-68
2022/11/30 01:10:40;;;;;;;;;65.33;50.00;;;;;2.91;100.00;100244.31;6272232;20;3635675;-68
2022/11/30 01:13:12;;;;;;;;;58.00;46.00;;;;;2.70;100.00;100240.31;6302331;20;2860738;-68
2022/11/30 01:15:43;;;;;;;;;57.00;45.67;;;;;2.79;100.00;100241.00;6268591;20;2862877;-68
2022/11/30 01:18:12;;;;;;;;;59.00;45.33;;;;;2.64;100.00;100239.53;6299910;20;2873243;-68
2022/11/30 01:20:42;;;;;;;;;53.00;44.50;;;;;2.84;100.00;100241.78;6302338;20;2844076;-68
2022/11/30 01:23:11;;;;;;;;;53.00;43.00;;;;;2.73;100.00;100243.78;6269842;20;2877644;-69
2022/11/30 01:25:41;;;;;;;;;57.33;45.00;;;;;2.75;100.00;100239.31;6273313;20;2875350;-68
2022/11/30 01:28:10;;;;;;;;;63.00;45.33;;;;;2.83;100.00;100237.38;6301376;20;2870106;-68
2022/11/30 01:30:40;;;;;;;;;63.00;44.33;;;;;2.88;100.00;100244.38;6303469;20;3626325;-68
2022/11/30 01:33:10;;;;;;;;;63.33;48.67;;;;;2.89;100.00;100246.09;6301842;20;3638788;-68
2022/11/30 01:35:39;;;;;;;;;60.33;44.67;;;;;2.89;100.00;100248.75;6300530;20;2870195;-67
2022/11/30 01:38:07;;;;;;;;;48.00;43.00;;;;;2.69;100.00;100242.09;6299168;20;2499265;-68
2022/11/30 01:40:36;;;;;;;;;57.50;45.50;;;;;2.80;100.00;100256.00;6272944;20;2856584;-68
2022/11/30 01:43:11;;;;;;;;;61.50;50.50;;;;;2.84;100.00;100252.41;6270156;20;2869056;-68
2022/11/30 01:45:39;;;;;;;;;60.00;44.50;;;;;2.85;100.00;100238.22;6269501;20;2871113;-68
2022/11/30 01:48:08;;;;;;;;;53.00;42.50;;;;;2.97;100.00;100242.38;6268189;20;2861758;-68
2022/11/30 01:50:37;;;;;;;;;58.00;44.50;;;;;2.88;100.00;100241.72;6269531;20;2870061;-68
2022/11/30 01:53:11;;;;;;;;;60.00;43.00;;;;;2.82;100.00;100233.00;6268739;20;2764407;-68
2022/11/30 01:55:48;;;;;;;;;54.00;44.00;;;;;2.82;100.00;100230.34;6294748;20;2500299;-68
2022/11/30 01:58:29;;;;;;;;;56.50;43.00;;;;;2.92;100.00;100232.78;6269206;20;2860685;-68
2022/11/30 02:00:59;;;;;;;;;56.50;45.50;;;;;3.00;100.00;100245.00;6273774;20;2851316;-68
2022/11/30 02:03:52;;;;;;;;;50.00;43.00;;;;;2.98;100.00;100235.31;6269368;20;2876489;-68
2022/11/30 02:06:25;;;;;;;;;63.00;47.33;;;;;2.82;100.00;100233.00;6270725;20;3613860;-68
2022/11/30 02:08:54;;;;;;;;;57.00;44.00;;;;;2.97;100.00;100237.06;6297751;20;2863914;-68
2022/11/30 02:11:26;;;;;;;;;51.00;40.50;;;;;2.95;100.00;100233.59;6268235;20;2845329;-68
2022/11/30 02:14:36;;;;;;;;;56.00;46.00;;;;;2.88;100.00;100231.13;6270048;20;2863954;-68
2022/11/30 02:17:53;;;;;;;;;53.00;38.67;;;;;3.05;100.00;100239.56;6268490;20;2877634;-68
2022/11/30 02:21:25;;;;;;;;;52.50;42.50;;;;;3.10;100.00;100243.00;6296200;20;2846314;-68
2022/11/30 02:24:40;;;;;;;;;55.50;43.50;;;;;3.18;100.00;100249.00;6270118;20;2848217;-68
2022/11/30 02:28:01;;;;;;;;;43.00;36.67;;;;;3.21;100.00;100250.72;6273020;20;3620045;-68
2022/11/30 02:30:35;;;;;;;;;54.00;42.50;;;;;3.15;100.00;100238.44;6304851;20;2856534;-68
2022/11/30 02:33:20;;;;;;;;;60.00;44.00;;;;;3.22;100.00;100240.06;6271360;20;2738847;-68
2022/11/30 02:35:52;;;;;;;;;56.00;43.00;;;;;3.18;100.00;100230.41;6294926;20;2499251;-68
2022/11/30 02:38:26;;;;;;;;;50.00;42.50;;;;;3.19;100.00;100237.50;6268105;20;2860745;-68
2022/11/30 02:40:54;;;;;;;;;47.50;37.00;;;;;3.00;100.00;100228.19;6272382;20;2839941;-68
2022/11/30 02:43:27;;;;;;;;;47.33;36.33;;;;;3.00;100.00;100222.88;6271480;20;2867012;-68
2022/11/30 02:46:28;;;;;;;;;50.50;40.50;;;;;2.97;100.00;100217.63;6302225;20;2858717;-68
2022/11/30 02:49:49;;;;;;;;;45.67;37.00;;;;;2.83;100.00;100210.84;6270867;20;2872283;-68
2022/11/30 02:52:21;;;;;;;;;46.33;34.67;;;;;2.82;100.00;100217.09;6301549;20;2875478;-68
2022/11/30 02:54:53;;;;;;;;;56.00;40.33;;;;;2.80;100.00;100213.59;6300442;20;3632669;-68
2022/11/30 02:57:21;;;;;;;;;53.00;42.00;;;;;2.88;100.00;100210.78;6297831;20;2859731;-68
2022/11/30 02:59:50;;;;;;;;;55.00;44.00;;;;;2.88;100.00;100204.59;6270112;20;2871110;-68
2022/11/30 03:02:20;;;;;;;;;60.67;42.33;;;;;3.03;100.00;100198.97;6269712;20;2877535;-68
2022/11/30 03:04:50;;;;;;;;;46.33;37.00;;;;;2.94;100.00;100204.44;6303249;20;2876453;-68
2022/11/30 03:07:19;;;;;;;;;52.00;40.67;;;;;3.03;100.00;100205.13;6302621;20;2874402;-68
2022/11/30 03:09:48;;;;;;;;;49.00;41.00;;;;;3.08;100.00;100207.66;6303625;20;2871155;-68
2022/11/30 03:12:16;;;;;;;;;55.00;44.50;;;;;2.99;100.00;100224.66;6271332;20;2864842;-68
2022/11/30 03:14:45;;;;;;;;;43.00;40.50;;;;;3.02;100.00;100223.72;6268974;20;2843079;-68
2022/11/30 03:17:14;;;;;;;;;53.00;41.00;;;;;3.04;100.00;100219.25;6267482;20;2495204;-68
2022/11/30 03:19:43;;;;;;;;;61.00;50.00;;;;;2.99;100.00;100213.19;6267216;20;2850266;-68
2022/11/30 03:22:11;;;;;;;;;60.50;45.00;;;;;2.77;100.00;100220.75;6265001;20;2866920;-69
2022/11/30 03:24:40;;;;;;;;;56.00;45.50;;;;;3.15;100.00;100219.00;6266130;20;2865893;-68
2022/11/30 03:27:09;;;;;;;;;53.00;42.50;;;;;2.91;100.00;100210.69;6268730;20;2855539;-68
2022/11/30 03:29:38;;;;;;;;;54.00;43.00;;;;;2.88;100.00;100231.13;6267796;20;2856660;-68
2022/11/30 03:32:07;;;;;;;;;56.50;43.50;;;;;2.86;100.00;100232.00;6268114;20;2859682;-68
2022/11/30 03:34:36;;;;;;;;;39.33;29.00;;;;;2.89;100.00;100233.72;6269458;20;2880511;-68
2022/11/30 03:37:05;;;;;;;;;42.00;37.00;;;;;3.00;100.00;100241.44;6300318;20;2839453;-68
2022/11/30 03:39:34;;;;;;;;;55.00;43.00;;;;;2.95;100.00;100240.66;6276671;20;2860748;-68
2022/11/30 03:42:02;;;;;;;;;47.00;39.50;;;;;2.84;100.00;100246.19;6302803;20;2487812;-68
2022/11/30 03:44:31;;;;;;;;;48.50;40.00;;;;;3.03;100.00;100238.75;6275122;20;2849252;-68
2022/11/30 03:47:00;;;;;;;;;54.50;43.50;;;;;2.88;100.00;100236.41;6272612;20;2853389;-67
2022/11/30 03:49:28;;;;;;;;;47.50;38.50;;;;;3.04;100.00;100235.19;6274865;20;2858661;-68
2022/11/30 03:51:58;;;;;;;;;49.33;39.67;;;;;2.85;100.00;100238.22;6272723;20;2863968;-68
2022/11/30 03:54:26;;;;;;;;;48.50;37.00;;;;;2.82;100.00;100233.00;6304175;20;2857575;-68
2022/11/30 03:56:56;;;;;;;;;48.67;39.33;;;;;2.88;100.00;100247.03;6275059;20;2863875;-68
2022/11/30 03:59:25;;;;;;;;;59.67;43.00;;;;;2.98;100.00;100248.59;6306982;20;2879578;-68
2022/11/30 04:01:54;;;;;;;;;43.50;39.50;;;;;2.76;100.00;100243.69;6309005;20;2856669;-68
2022/11/30 04:04:23;;;;;;;;;53.50;42.50;;;;;2.81;100.00;100236.53;6275294;20;2853450;-68
2022/11/30 04:06:51;;;;;;;;;40.00;37.00;;;;;2.76;100.00;100240.19;6270518;20;2498225;-68
2022/11/30 04:09:19;;;;;;;;;55.50;43.00;;;;;2.79;100.00;100238.38;6273657;20;2860015;-68
2022/11/30 04:11:48;;;;;;;;;60.00;45.00;;;;;2.96;100.00;100245.09;6272398;20;2874330;-68
2022/11/30 04:14:17;;;;;;;;;53.50;41.00;;;;;2.81;100.00;100244.47;6273582;20;2846132;-68
2022/11/30 04:16:46;;;;;;;;;51.33;39.00;;;;;2.96;100.00;100242.44;6276723;20;3620120;-68
2022/11/30 04:19:16;;;;;;;;;44.33;38.00;;;;;2.89;100.00;100240.81;6302171;20;2869285;-68
2022/11/30 04:21:44;;;;;;;;;43.00;39.00;;;;;2.92;100.00;100243.38;6305553;20;2836770;-67
2022/11/30 04:24:13;;;;;;;;;46.00;40.50;;;;;2.80;100.00;100237.44;6275533;20;2856526;-68
2022/11/30 04:26:42;;;;;;;;;53.50;40.50;;;;;2.86;100.00;100226.69;6273577;20;2857541;-68
2022/11/30 04:29:11;;;;;;;;;53.00;43.00;;;;;2.99;100.00;100242.34;6273728;20;2856655;-68
2022/11/30 04:31:40;;;;;;;;;55.00;40.33;;;;;2.83;100.00;100236.50;6273378;20;2885714;-68
2022/11/30 04:34:10;;;;;;;;;47.00;41.00;;;;;2.87;100.00;100230.25;6300665;20;2868050;-68
2022/11/30 04:36:39;;;;;;;;;55.00;39.67;;;;;2.79;100.00;100229.50;6307000;20;3646106;-68
2022/11/30 04:39:08;;;;;;;;;55.00;47.00;;;;;2.78;100.00;100220.69;6303788;20;2857629;-67
2022/11/30 04:41:38;;;;;;;;;53.50;42.50;;;;;2.96;100.00;100230.03;6271137;20;2851352;-68
2022/11/30 04:44:07;;;;;;;;;49.00;39.00;;;;;2.82;100.00;100230.34;6270609;20;2876325;-68
2022/11/30 04:46:36;;;;;;;;;47.50;39.50;;;;;2.71;100.00;100231.44;6275171;20;2863954;-68
2022/11/30 04:49:04;;;;;;;;;53.00;40.00;;;;;2.91;100.00;100233.69;6264051;20;2493187;-68
2022/11/30 04:51:33;;;;;;;;;41.33;34.67;;;;;2.96;100.00;100234.47;6269461;20;2865903;-68
2022/11/30 04:54:03;;;;;;;;;56.67;43.00;;;;;2.97;100.00;100233.56;6301006;20;3622124;-68
2022/11/30 04:56:32;;;;;;;;;58.00;39.33;;;;;2.94;100.00;100230.97;6301493;20;3605477;-68
2022/11/30 04:59:02;;;;;;;;;58.00;42.67;;;;;2.86;100.00;100236.44;6268413;20;3620039;-68
2022/11/30 05:01:30;;;;;;;;;50.00;41.00;;;;;3.05;100.00;100231.59;6271594;20;2851845;-68
2022/11/30 05:04:00;;;;;;;;;58.00;42.00;;;;;2.93;100.00;100227.47;6272792;20;2864958;-67
2022/11/30 05:06:30;;;;;;;;;53.33;39.00;;;;;3.04;100.00;100227.22;6306656;20;2870059;-68
2022/11/30 05:08:58;;;;;;;;;51.00;41.00;;;;;2.85;100.00;100232.06;6302785;20;2860705;-68
2022/11/30 05:11:27;;;;;;;;;53.00;44.00;;;;;3.01;100.00;100227.28;6269592;20;2852490;-68
2022/11/30 05:13:56;;;;;;;;;46.00;39.00;;;;;2.95;100.00;100232.72;6272694;20;2858796;-68
2022/11/30 05:16:25;;;;;;;;;40.67;34.33;;;;;2.92;100.00;100231.00;6273203;20;3609659;-68
2022/11/30 05:18:54;;;;;;;;;49.00;38.50;;;;;2.84;100.00;100231.19;6302482;20;2854547;-68
2022/11/30 05:21:24;;;;;;;;;54.33;41.33;;;;;2.93;100.00;100235.41;6273574;20;2872394;-68
2022/11/30 05:23:53;;;;;;;;;51.00;41.00;;;;;2.76;100.00;100225.16;6302614;20;2852335;-68
2022/11/30 05:26:20;;;;;;;;;53.50;39.50;;;;;2.86;100.00;100228.47;6271508;20;2495127;-68
2022/11/30 05:28:50;;;;;;;;;42.67;37.33;;;;;2.86;100.00;100232.00;6271090;20;2858649;-68
2022/11/30 05:31:19;;;;;;;;;54.33;40.00;;;;;2.71;100.00;100227.00;6302855;20;3636687;-68
2022/11/30 05:33:53;;;;;;;;;44.00;38.50;;;;;2.79;100.00;100235.72;6303069;20;2863912;-68
2022/11/30 05:36:22;;;;;;;;;34.00;29.00;;;;;2.98;100.00;100243.28;6271025;20;2860673;-68
2022/11/30 05:38:52;;;;;;;;;55.33;41.00;;;;;3.00;100.00;100247.66;6267679;20;2864946;-69
2022/11/30 05:41:22;;;;;;;;;52.33;41.33;;;;;3.05;100.00;100251.06;6303260;20;2855535;-68
2022/11/30 05:43:50;;;;;;;;;54.50;41.50;;;;;3.09;100.00;100251.88;6301003;20;2862851;-68
2022/11/30 05:46:20;;;;;;;;;52.67;42.33;;;;;3.11;100.00;100260.66;6266070;20;2859869;-68
2022/11/30 05:48:49;;;;;;;;;46.33;36.33;;;;;3.16;100.00;100255.25;6299517;20;3630480;-68
2022/11/30 05:51:20;;;;;;;;;53.00;40.50;;;;;3.10;100.00;100253.59;6301361;20;3510760;-68
2022/11/30 05:53:49;;;;;;;;;55.00;43.00;;;;;3.45;100.00;100259.88;6299667;20;2872253;-68
2022/11/30 05:56:20;;;;;;;;;54.67;40.33;;;;;3.17;100.00;100259.66;6269903;20;3637752;-68
2022/11/30 05:58:50;;;;;;;;;52.33;43.33;;;;;3.07;100.00;100258.97;6298478;20;2879457;-69
2022/11/30 06:01:22;;;;;;;;;38.00;35.00;;;;;3.09;100.00;100259.81;6298246;20;2852380;-68
2022/11/30 06:03:52;;;;;;;;;49.00;36.00;;;;;3.12;100.00;100262.41;6272419;20;2860749;-68
2022/11/30 06:06:22;;;;;;;;;42.00;35.33;;;;;3.33;100.00;100254.88;6302709;20;2868083;-68
2022/11/30 06:08:51;;;;;;;;;50.00;34.33;;;;;3.54;100.00;100261.47;6302154;20;2875446;-67
2022/11/30 06:11:20;;;;;;;;;35.00;30.50;;;;;3.46;100.00;100266.97;6301360;20;2856650;-68
2022/11/30 06:13:50;;;;;;;;;36.00;31.00;;;;;3.43;100.00;100267.03;6274765;20;2849327;-68
2022/11/30 06:16:19;;;;;;;;;34.33;32.33;;;;;3.37;100.00;100276.03;6292314;20;2859703;-68
2022/11/30 06:18:48;;;;;;;;;38.00;35.00;;;;;3.39;100.00;100270.66;6299937;20;2862910;-68
2022/11/30 06:21:17;;;;;;;;;44.00;33.67;;;;;3.28;100.00;100271.75;6268032;20;3613871;-68
2022/11/30 06:23:52;;;;;;;;;40.33;31.00;;;;;3.18;100.00;100272.88;6304539;20;2868169;-69
2022/11/30 06:26:21;;;;;;;;;36.50;32.50;;;;;3.29;100.00;100273.53;6304624;20;2850355;-67
2022/11/30 06:28:50;;;;;;;;;31.50;27.50;;;;;3.37;100.00;100275.13;6272577;20;2837841;-68
2022/11/30 06:31:19;;;;;;;;;39.00;33.00;;;;;3.26;100.00;100276.22;6266801;20;2858697;-68
2022/11/30 06:33:50;;;;;;;;;83.67;66.00;;;;;3.24;100.00;100270.09;6300114;20;3665892;-68
2022/11/30 06:36:22;;;;;;;;;49.00;36.67;;;;;3.26;100.00;100275.38;6269775;20;2873292;-68
2022/11/30 06:38:51;;;;;;;;;38.50;31.50;;;;;3.27;100.00;100272.69;6299471;20;2847165;-68
2022/11/30 06:41:21;;;;;;;;;39.67;28.00;;;;;3.23;100.00;100272.78;6264338;20;3624339;-68
2022/11/30 06:43:51;;;;;;;;;37.67;36.33;;;;;3.27;100.00;100279.78;6297231;20;2852389;-68
2022/11/30 06:46:21;;;;;;;;;35.33;33.33;;;;;3.24;100.00;100278.06;6303938;20;3601306;-68
2022/11/30 06:48:50;;;;;;;;;42.67;36.33;;;;;3.41;100.00;100284.78;6272246;20;3628395;-68
2022/11/30 06:51:20;;;;;;;;;50.33;39.67;;;;;3.35;100.00;100287.56;6303511;20;2861759;-68
2022/11/30 06:53:49;;;;;;;;;55.67;44.00;;;;;3.36;100.00;100287.53;6298985;20;2858624;-68
2022/11/30 06:56:19;;;;;;;;;74.33;51.00;;;;;3.38;100.00;100287.50;6299786;20;3638829;-68
2022/11/30 06:58:48;;;;;;;;;76.67;57.33;;;;;3.49;100.00;100294.28;6301167;20;3638866;-67
2022/11/30 07:01:18;;;;;;;;;70.33;54.33;;;;;3.49;100.00;100282.81;6300573;20;3632754;-68
2022/11/30 07:03:48;;;;;;;;;74.33;58.00;;;;;3.56;100.00;100292.38;6303242;20;3620183;-68
2022/11/30 07:06:18;;;;;;;;;76.33;57.33;;;;;3.78;100.00;100289.22;6301640;20;3631539;-68
2022/11/30 07:08:48;;;;;;;;;84.33;64.33;;;;;3.92;99.27;100287.09;6301662;20;3639001;-68
2022/11/30 07:11:18;;;;;;;;;70.33;55.33;;;;;3.62;99.43;100281.63;6301003;20;3625344;-68
2022/11/30 07:13:48;;;;;;;;;68.33;53.67;;;;;3.46;100.00;100282.88;6302628;20;3627370;-68
2022/11/30 07:16:16;;;;;;;;;61.00;48.50;;;;;3.38;100.00;100284.84;6304628;20;2869071;-68
2022/11/30 07:18:45;;;;;;;;;47.00;39.50;;;;;3.62;100.00;100284.28;6270950;20;2867006;-67
2022/11/30 07:21:14;;;;;;;;;52.50;41.50;;;;;3.61;100.00;100286.97;6269414;20;2863858;-68
2022/11/30 07:26:31;;;;;;;;;54.00;42.00;;;;;3.64;100.00;100277.16;6301014;20;2879469;-68
2022/11/30 07:28:59;;;;;;;;;59.00;46.50;;;;;3.74;100.00;100280.47;6267141;20;2869097;-68
2022/11/30 07:31:33;;;;;;;;;61.00;50.00;;;;;3.72;100.00;100285.81;6269703;20;2741015;-68
2022/11/30 07:34:08;;;;;;;;;46.67;36.67;;;;;3.81;100.00;100281.19;6297826;20;2881605;-68
2022/11/30 07:36:37;;;;;;;;;32.50;26.50;;;;;3.80;100.00;100287.41;6303267;20;2846107;-68
2022/11/30 07:39:06;;;;;;;;;38.00;34.50;;;;;3.93;100.00;100288.84;6270606;20;2856596;-68
2022/11/30 07:41:35;;;;;;;;;39.67;34.00;;;;;3.95;100.00;100281.72;6270277;20;3613836;-68
2022/11/30 07:44:05;;;;;;;;;35.00;34.00;;;;;4.02;99.04;100287.75;6296733;20;2860785;-68
2022/11/30 07:46:37;;;;;;;;;40.67;37.00;;;;;4.06;98.51;100290.28;6272594;20;2859643;-68
2022/11/30 07:49:08;;;;;;;;;43.50;38.00;;;;;4.34;97.83;100293.09;6298915;20;2867109;-67
2022/11/30 07:51:38;;;;;;;;;35.33;29.67;;;;;4.34;97.23;100290.44;6270789;20;3635801;-68
2022/11/30 07:54:07;;;;;;;;;40.33;33.33;;;;;4.10;96.83;100286.63;6303112;20;3630491;-68
2022/11/30 07:56:37;;;;;;;;;36.00;34.00;;;;;4.24;97.06;100294.28;6296785;20;3604702;-68
2022/11/30 07:59:06;;;;;;;;;33.33;31.67;;;;;4.43;96.52;100289.34;6304049;20;3597184;-68
2022/11/30 08:01:36;;;;;;;;;41.67;36.00;;;;;4.47;97.27;100304.28;6271163;20;2864979;-67
2022/11/30 08:04:05;;;;;;;;;38.00;36.00;;;;;4.66;95.18;100290.47;6305355;20;3614905;-68
2022/11/30 08:06:34;;;;;;;;;37.33;32.00;;;;;4.91;94.20;100294.22;6268870;20;3619086;-68
2022/11/30 08:09:04;;;;;;;;;58.50;47.50;;;;;4.87;94.08;100294.34;6300290;20;2851397;-68
2022/11/30 08:11:35;;;;;;;;;88.00;67.33;;;;;5.00;92.72;100291.31;6267822;20;3654505;-68
2022/11/30 08:14:04;;;;;;;;;34.50;29.00;;;;;4.81;94.04;100295.38;6302198;20;2850382;-68
2022/11/30 08:16:37;;;;;;;;;53.50;37.50;;;;;4.95;93.72;100292.31;6267179;20;2858616;-68
2022/11/30 08:19:06;;;;;;;;;38.00;30.67;;;;;5.21;93.25;100286.22;6271100;20;2868133;-68
2022/11/30 08:21:36;;;;;;;;;33.67;26.00;;;;;5.32;92.31;100286.81;6295213;20;2855584;-68
2022/11/30 08:24:08;;;;;;;;;25.67;21.00;;;;;5.15;92.02;100289.09;6299902;20;3579905;-68
2022/11/30 08:26:37;;;;;;;;;22.50;20.00;;;;;4.94;91.24;100290.59;6284932;20;2836776;-68
2022/11/30 08:29:05;;;;;;;;;15.67;15.67;;;;;5.05;90.55;100292.03;6275151;20;3548268;-68
2022/11/30 08:31:36;;;;;;;;;21.00;17.00;;;;;5.13;90.29;100285.59;6307783;20;2554475;-67
2022/11/30 08:34:11;;;;;;;;;27.67;21.00;;;;;5.07;89.41;100295.50;6303217;20;3579500;-68
2022/11/30 08:36:40;;;;;;;;;25.50;20.50;;;;;5.38;89.85;100288.41;6273467;20;2834246;-68
2022/11/30 08:39:12;;;;;;;;;22.33;20.33;;;;;5.55;89.89;100282.53;6273912;20;3565854;-68
2022/11/30 08:41:41;;;;;;;;;26.00;24.50;;;;;5.83;88.31;100278.09;6269321;20;2836974;-68
2022/11/30 08:44:10;;;;;;;;;20.67;18.00;;;;;5.47;86.63;100280.97;6271015;20;3557554;-68
2022/11/30 08:46:38;;;;;;;;;24.50;24.50;;;;;5.50;87.19;100275.59;6303407;20;2841998;-68
2022/11/30 08:49:26;;;;;;;;;12.00;10.00;;;;;5.40;86.63;100284.78;6275676;20;2777488;-68
2022/11/30 08:51:56;;;;;;;;;29.00;20.00;;;;;5.45;86.97;100280.19;6271718;20;2862784;-68
2022/11/30 08:54:45;;;;;;;;;23.00;19.00;;;;;5.32;84.71;100291.22;6270485;20;2500373;-68
2022/11/30 08:57:33;;;;;;;;;25.50;23.00;;;;;5.58;85.51;100282.44;6269412;20;2500406;-69
2022/11/30 09:00:02;;;;;;;;;27.00;21.50;;;;;5.50;84.67;100286.25;6269083;20;2844240;-68
2022/11/30 09:02:30;;;;;;;;;20.00;19.00;;;;;5.42;83.40;100292.69;6271692;20;2500286;-65
2022/11/30 09:04:59;;;;;;;;;21.00;19.00;;;;;5.57;83.07;100288.69;6272777;20;3558798;-68
2022/11/30 09:07:27;;;;;;;;;25.00;21.00;;;;;5.64;83.83;100287.59;6302462;20;2831529;-68
2022/11/30 09:09:56;;;;;;;;;30.50;25.00;;;;;5.87;84.33;100284.16;6272933;20;2843047;-68
2022/11/30 09:12:25;;;;;;;;;18.67;18.00;;;;;5.97;81.98;100290.13;6265681;20;3579435;-68
2022/11/30 09:14:53;;;;;;;;;22.00;21.00;;;;;5.77;81.86;100294.28;6297441;20;2837767;-68
2022/11/30 09:17:26;;;;;;;;;25.00;24.50;;;;;5.89;81.85;100283.19;6269583;20;2846109;-68
2022/11/30 09:19:55;;;;;;;;;25.67;23.00;;;;;5.70;81.04;100284.72;6272117;20;2856594;-68
2022/11/30 09:22:24;;;;;;;;;18.67;17.00;;;;;5.86;81.74;100288.63;6300989;20;3543105;-68
2022/11/30 09:24:51;;;;;;;;;25.50;21.00;;;;;5.92;82.37;100285.78;6271159;20;2840920;-68
2022/11/30 09:27:20;;;;;;;;;21.00;19.00;;;;;5.95;81.43;100290.19;6268217;20;2500321;-69
2022/11/30 09:29:50;;;;;;;;;15.20;10.80;;;;;5.78;80.87;100282.69;6296124;20;2784067;-68
2022/11/30 09:32:18;;;;;;;;;25.00;20.00;;;;;5.48;81.57;100288.06;6273766;20;3572162;-68
2022/11/30 09:34:46;;;;;;;;;25.50;21.00;;;;;5.66;81.08;100286.63;6268012;20;2837854;-68
2022/11/30 09:37:18;;;;;;;;;20.33;18.00;;;;;5.78;80.44;100301.34;6269282;20;3550321;-68
2022/11/30 09:39:46;;;;;;;;;16.67;15.33;;;;;5.81;81.67;100301.22;6299934;20;3545092;-68
2022/11/30 09:42:42;;;;;;;;;23.00;20.50;;;;;6.01;80.95;100291.78;6267477;20;2498227;-68
2022/11/30 09:45:23;;;;;;;;;9.00;9.00;;;;;5.79;80.54;100292.41;6264947;20;2764958;-68
2022/11/30 09:48:31;;;;;;;;;22.00;19.00;;;;;5.86;81.95;100290.44;6270184;20;3561705;-68
2022/11/30 09:51:24;;;;;;;;;21.00;19.00;;;;;6.03;81.42;100277.47;6267056;20;2500287;-68
2022/11/30 09:54:06;;;;;;;;;12.50;8.50;;;;;5.97;81.17;100282.13;6269811;20;2771230;-68
2022/11/30 09:56:38;;;;;;;;;19.00;15.50;;;;;5.79;80.61;100280.88;6268730;20;2805619;-68
2022/11/30 09:59:28;;;;;;;;;12.00;12.00;;;;;5.88;80.46;100276.13;6267265;20;2789876;-69
2022/11/30 10:02:06;;;;;;;;;17.00;13.50;;;;;5.96;81.03;100275.06;6267230;20;2804495;-68
2022/11/30 10:04:35;;;;;;;;;19.00;16.67;;;;;5.95;79.63;100266.19;6285080;20;3551393;-69
2022/11/30 10:07:10;;;;;;;;;9.75;5.75;;;;;5.71;80.38;100273.13;6307441;20;1812907;-68
2022/11/30 10:10:06;;;;;;;;;19.33;18.67;;;;;5.90;80.79;100282.31;6302593;20;3559677;-68
2022/11/30 10:13:43;;;;;;;;;25.50;19.50;;;;;6.10;81.05;100275.44;6271027;20;2837796;-68
2022/11/30 10:16:42;;;;;;;;;14.67;13.67;;;;;5.98;80.05;100260.75;6270042;20;3512746;-69
2022/11/30 10:20:21;;;;;;;;;13.40;12.80;;;;;5.83;80.24;100286.06;6323755;20;2801552;-69
2022/11/30 10:24:05;;;;;;;;;20.67;19.00;;;;;6.25;80.17;100274.94;6270401;20;3561773;-68
2022/11/30 10:26:37;;;;;;;;;20.00;16.50;;;;;6.17;80.88;100266.34;6296633;20;2500384;-68
2022/11/30 10:29:37;;;;;;;;;23.00;18.00;;;;;6.30;82.65;100256.13;6266431;20;2838814;-68
2022/11/30 10:32:35;;;;;;;;;19.00;13.50;;;;;5.97;81.47;100248.34;6272170;20;2815915;-68
2022/11/30 10:35:36;;;;;;;;;8.75;7.00;;;;;6.03;82.52;100244.59;6284780;20;1811834;-68
2022/11/30 10:38:34;;;;;;;;;19.50;15.00;;;;;6.04;81.99;100249.00;6298799;20;2815917;-68
2022/11/30 10:41:24;;;;;;;;;29.00;19.00;;;;;6.27;82.51;100246.44;6267583;20;2842064;-69
2022/11/30 10:44:02;;;;;;;;;16.00;12.00;;;;;6.34;81.52;100252.41;6266563;20;2802339;-68
2022/11/30 10:46:41;;;;;;;;;22.00;18.00;;;;;6.36;81.71;100245.22;6295730;20;2821128;-68
2022/11/30 10:49:18;;;;;;;;;21.00;15.00;;;;;6.31;82.22;100245.38;6271475;20;3552381;-68
2022/11/30 10:51:57;;;;;;;;;23.50;20.00;;;;;6.18;83.11;100241.41;6265570;20;2828540;-68
2022/11/30 10:54:25;;;;;;;;;27.00;19.00;;;;;6.10;81.94;100240.81;6266546;20;2494031;-69
2022/11/30 10:56:52;;;;;;;;;13.00;13.00;;;;;6.08;82.17;100246.19;6269918;20;2494166;-68
2022/11/30 10:59:43;;;;;;;;;13.00;13.00;;;;;5.99;82.84;100245.63;6267458;20;2792184;-69
2022/11/30 11:02:50;;;;;;;;;9.50;6.50;;;;;6.09;83.26;100241.72;6306291;20;2762797;-68
2022/11/30 11:05:26;;;;;;;;;22.00;19.50;;;;;6.06;83.29;100247.19;6267612;20;2830010;-69
2022/11/30 11:08:03;;;;;;;;;13.43;9.00;;;;;6.30;82.73;100234.78;6312521;20;1804549;-69
2022/11/30 11:10:51;;;;;;;;;6.50;6.50;;;;;6.31;82.16;100226.72;6305367;20;2742990;-68
2022/11/30 11:13:42;;;;;;;;;13.00;11.33;;;;;6.43;82.21;100230.75;6269365;20;2800527;-68
2022/11/30 11:16:12;;;;;;;;;39.00;36.00;;;;;6.57;82.49;100232.91;6296451;20;2483785;-68
2022/11/30 11:18:56;;;;;;;;;13.00;7.50;;;;;6.26;81.41;100222.47;6268434;20;2770234;-69
2022/11/30 11:21:24;;;;;;;;;19.50;14.50;;;;;6.34;81.85;100213.25;6266326;20;2498192;-69
2022/11/30 11:23:57;;;;;;;;;22.00;19.50;;;;;6.72;82.41;100219.03;6267140;20;2498242;-68
2022/11/30 11:26:28;;;;;;;;;24.00;19.67;;;;;6.69;81.68;100212.91;6266953;20;3561719;-68
2022/11/30 11:28:58;;;;;;;;;18.50;17.00;;;;;6.88;81.41;100221.13;6266159;20;2827551;-69